createdAt,value
2022-10-25T00:00:42.607Z,9.38
2022-10-25T00:03:10.858Z,8.50
2022-10-25T00:05:45.972Z,10.13
2022-10-25T00:08:12.847Z,14.20
2022-10-25T00:10:39.406Z,13.65
2022-10-25T00:13:06.398Z,12.73
2022-10-25T00:15:33.120Z,9.50
2022-10-25T00:18:01.066Z,8.18
2022-10-25T00:20:27.691Z,11.88
2022-10-25T00:22:54.314Z,9.18
2022-10-25T00:25:21.102Z,9.80
2022-10-25T00:27:47.775Z,11.48
2022-10-25T00:30:15.142Z,12.50
2022-10-25T00:32:41.899Z,10.60
2022-10-25T00:35:09.055Z,9.18
2022-10-25T00:37:36.380Z,8.38
2022-10-25T00:40:04.498Z,11.45
2022-10-25T00:42:31.174Z,11.98
2022-10-25T00:45:01.799Z,10.18
2022-10-25T00:47:40.450Z,8.02
2022-10-25T00:50:13.197Z,8.00
2022-10-25T00:52:42.886Z,8.70
2022-10-25T00:55:11.920Z,9.23
2022-10-25T00:57:47.416Z,11.73
2022-10-25T01:00:14.807Z,9.77
2022-10-25T01:02:42.114Z,8.70
2022-10-25T01:05:10.039Z,7.70
2022-10-25T01:07:37.126Z,11.93
2022-10-25T01:10:03.931Z,8.48
2022-10-25T01:12:30.954Z,15.55
2022-10-25T01:15:06.362Z,11.70
2022-10-25T01:24:35.116Z,12.23
2022-10-25T01:27:36.418Z,10.80
2022-10-25T01:30:28.221Z,10.60
2022-10-25T01:33:16.880Z,14.32
2022-10-25T01:36:17.867Z,8.85
2022-10-25T01:39:43.041Z,8.18
2022-10-25T01:42:57.384Z,12.52
2022-10-25T01:46:11.327Z,12.85
2022-10-25T01:48:53.589Z,15.00
2022-10-25T01:51:42.038Z,12.50
2022-10-25T01:54:36.260Z,9.20
2022-10-25T01:57:48.773Z,13.20
2022-10-25T02:00:32.658Z,10.10
2022-10-25T02:03:55.794Z,7.70
2022-10-25T02:07:00.977Z,17.40
2022-10-25T02:10:19.444Z,9.27
2022-10-25T02:19:33.627Z,10.15
2022-10-25T02:22:39.395Z,11.35
2022-10-25T02:25:17.094Z,18.13
2022-10-25T02:30:48.950Z,7.70
2022-10-25T02:33:26.848Z,16.05
2022-10-25T02:36:29.202Z,9.40
2022-10-25T02:39:10.468Z,12.38
2022-10-25T02:41:47.699Z,12.40
2022-10-25T02:44:34.667Z,10.35
2022-10-25T02:47:33.243Z,13.70
2022-10-25T02:50:28.706Z,9.00
2022-10-25T02:53:05.247Z,12.80
2022-10-25T02:55:41.552Z,13.32
2022-10-25T02:58:17.923Z,16.30
2022-10-25T03:00:51.094Z,9.35
2022-10-25T03:03:29.943Z,12.65
2022-10-25T03:06:00.974Z,14.88
2022-10-25T03:08:34.074Z,14.48
2022-10-25T03:11:16.399Z,10.40
2022-10-25T03:13:54.323Z,12.20
2022-10-25T03:16:29.788Z,8.90
2022-10-25T03:19:09.190Z,14.68
2022-10-25T03:21:42.724Z,11.88
2022-10-25T03:24:18.630Z,10.82
2022-10-25T03:26:53.852Z,13.60
2022-10-25T03:29:33.420Z,13.05
2022-10-25T03:32:13.611Z,9.35
2022-10-25T03:34:47.350Z,10.10
2022-10-25T03:37:21.466Z,8.27
2022-10-25T03:40:04.181Z,10.50
2022-10-25T03:42:36.856Z,11.73
2022-10-25T03:45:09.645Z,16.30
2022-10-25T03:47:40.538Z,13.65
2022-10-25T03:50:10.856Z,12.50
2022-10-25T03:52:43.381Z,11.55
2022-10-25T03:55:20.280Z,5.35
2022-10-25T03:57:57.889Z,10.55
2022-10-25T04:00:30.408Z,18.30
2022-10-25T04:03:03.473Z,12.57
2022-10-25T04:05:33.866Z,15.15
2022-10-25T04:08:04.885Z,12.20
2022-10-25T04:10:38.853Z,11.23
2022-10-25T04:13:12.351Z,12.73
2022-10-25T04:15:42.850Z,19.30
2022-10-25T04:18:16.003Z,11.90
2022-10-25T04:20:50.938Z,12.90
2022-10-25T04:23:24.599Z,9.20
2022-10-25T04:26:00.130Z,10.50
2022-10-25T04:28:31.776Z,11.45
2022-10-25T04:31:02.740Z,11.13
2022-10-25T04:33:36.978Z,10.50
2022-10-25T04:36:13.937Z,13.25
2022-10-25T04:38:46.774Z,9.85
2022-10-25T04:41:21.375Z,12.02
2022-10-25T04:43:54.288Z,12.65
2022-10-25T04:46:25.587Z,15.52
2022-10-25T04:48:58.960Z,11.70
2022-10-25T04:51:29.048Z,13.90
2022-10-25T04:56:32.864Z,16.33
2022-10-25T04:59:04.146Z,12.18
2022-10-25T05:01:41.832Z,14.57
2022-10-25T05:04:14.097Z,18.00
2022-10-25T05:06:44.581Z,16.02
2022-10-25T05:09:15.131Z,15.55
2022-10-25T05:11:43.778Z,21.30
2022-10-25T05:14:16.887Z,14.32
2022-10-25T05:16:45.659Z,8.75
2022-10-25T05:19:13.630Z,11.38
2022-10-25T05:21:42.450Z,12.85
2022-10-25T05:24:12.154Z,13.73
2022-10-25T05:26:44.625Z,15.13
2022-10-25T05:29:15.117Z,12.25
2022-10-25T05:31:48.498Z,16.83
2022-10-25T05:34:19.250Z,18.90
2022-10-25T05:45:01.251Z,15.00
2022-10-25T05:47:31.299Z,14.35
2022-10-25T05:52:28.160Z,17.00
2022-10-25T05:54:57.931Z,12.60
2022-10-25T05:57:27.369Z,15.77
2022-10-25T05:59:55.563Z,19.17
2022-10-25T06:02:24.818Z,12.93
2022-10-25T06:04:55.346Z,17.83
2022-10-25T06:07:24.405Z,22.73
2022-10-25T06:09:55.331Z,15.50
2022-10-25T06:12:24.708Z,18.10
2022-10-25T06:14:54.630Z,14.73
2022-10-25T06:17:24.887Z,15.98
2022-10-25T06:19:55.249Z,15.00
2022-10-25T06:22:26.516Z,16.33
2022-10-25T06:24:56.343Z,17.70
2022-10-25T06:27:24.922Z,22.80
2022-10-25T06:29:54.973Z,17.23
2022-10-25T06:32:24.607Z,14.27
2022-10-25T06:34:52.043Z,13.32
2022-10-25T06:37:20.236Z,17.02
2022-10-25T06:39:49.005Z,21.02
2022-10-25T06:42:16.907Z,15.70
2022-10-25T06:44:46.759Z,13.32
2022-10-25T06:47:20.553Z,18.48
2022-10-25T06:49:49.867Z,21.55
2022-10-25T06:52:19.237Z,14.07
2022-10-25T06:54:47.030Z,15.68
2022-10-25T06:57:16.080Z,16.40
2022-10-25T06:59:47.565Z,17.40
2022-10-25T07:02:21.581Z,13.85
2022-10-25T07:04:51.980Z,17.05
2022-10-25T07:07:22.488Z,15.65
2022-10-25T07:09:50.064Z,18.10
2022-10-25T07:12:20.763Z,17.07
2022-10-25T07:14:48.546Z,16.73
2022-10-25T07:17:17.255Z,15.90
2022-10-25T07:19:44.954Z,19.50
2022-10-25T07:22:12.490Z,16.25
2022-10-25T07:24:41.650Z,18.10
2022-10-25T07:27:11.253Z,21.58
2022-10-25T07:29:44.519Z,11.05
2022-10-25T07:32:12.502Z,16.27
2022-10-25T07:34:44.011Z,16.35
2022-10-25T07:37:14.079Z,16.77
2022-10-25T07:39:42.636Z,18.25
2022-10-25T07:42:09.866Z,15.40
2022-10-25T07:44:39.495Z,11.00
2022-10-25T07:49:39.924Z,20.30
2022-10-25T07:52:12.409Z,15.43
2022-10-25T07:57:13.588Z,13.10
2022-10-25T07:59:42.672Z,17.23
2022-10-25T08:02:21.796Z,16.08
2022-10-25T08:04:54.267Z,12.40
2022-10-25T08:07:25.027Z,11.88
2022-10-25T08:09:56.508Z,13.90
2022-10-25T08:12:31.526Z,11.15
2022-10-25T08:15:01.375Z,14.40
2022-10-25T08:17:30.924Z,13.52
2022-10-25T08:25:33.027Z,17.10
2022-10-25T08:28:04.149Z,21.35
2022-10-25T08:30:34.198Z,20.45
2022-10-25T08:33:08.197Z,16.15
2022-10-25T08:35:41.941Z,12.88
2022-10-25T08:38:12.251Z,11.32
2022-10-25T08:40:58.240Z,13.00
2022-10-25T08:43:43.874Z,13.63
2022-10-25T08:46:20.733Z,14.25
2022-10-25T08:49:06.763Z,19.52
2022-10-25T08:51:39.919Z,14.57
2022-10-25T08:54:24.595Z,14.82
2022-10-25T08:57:14.942Z,16.02
2022-10-25T08:59:48.414Z,16.15
2022-10-25T09:02:41.637Z,17.42
2022-10-25T09:05:41.698Z,16.05
2022-10-25T09:08:50.235Z,12.95
2022-10-25T09:11:41.425Z,15.10
2022-10-25T09:14:12.026Z,15.68
2022-10-25T09:16:50.366Z,15.90
2022-10-25T09:19:25.759Z,17.08
2022-10-25T09:22:14.218Z,13.63
2022-10-25T09:24:57.612Z,16.13
2022-10-25T09:27:37.084Z,14.68
2022-10-25T09:30:12.550Z,15.88
2022-10-25T09:32:42.991Z,17.02
2022-10-25T09:35:40.797Z,18.17
2022-10-25T09:38:45.649Z,13.02
2022-10-25T09:41:46.882Z,11.43
2022-10-25T09:44:36.505Z,13.95
2022-10-25T09:47:18.449Z,17.48
2022-10-25T09:49:55.077Z,12.45
2022-10-25T09:52:37.359Z,13.23
2022-10-25T09:55:16.062Z,18.88
2022-10-25T09:57:43.062Z,14.38
2022-10-25T10:00:14.271Z,16.30
2022-10-25T10:02:41.479Z,13.88
2022-10-25T10:05:17.028Z,13.93
2022-10-25T10:07:45.740Z,11.82
2022-10-25T10:10:17.722Z,10.95
2022-10-25T10:13:02.465Z,14.57
2022-10-25T10:15:34.362Z,16.33
2022-10-25T10:18:21.368Z,13.30
2022-10-25T10:21:01.639Z,10.68
2022-10-25T10:23:31.652Z,14.27
2022-10-25T10:26:02.859Z,15.20
2022-10-25T10:28:34.243Z,15.73
2022-10-25T10:31:03.066Z,13.20
2022-10-25T10:33:32.577Z,17.10
2022-10-25T10:36:20.716Z,13.88
2022-10-25T10:38:50.423Z,13.52
2022-10-25T10:44:07.375Z,15.13
2022-10-25T10:46:34.008Z,14.10
2022-10-25T10:49:02.680Z,9.73
2022-10-25T10:51:44.082Z,15.57
2022-10-25T10:54:16.028Z,14.25
2022-10-25T10:56:42.962Z,19.70
2022-10-25T10:59:38.771Z,12.73
2022-10-25T11:02:42.058Z,14.90
2022-10-25T11:05:37.916Z,12.90
2022-10-25T11:08:07.622Z,11.38
2022-10-25T11:10:35.904Z,13.25
2022-10-25T11:13:11.872Z,11.15
2022-10-25T11:16:04.858Z,8.02
2022-10-25T11:18:59.935Z,9.23
2022-10-25T11:21:44.864Z,9.93
2022-10-25T11:24:39.054Z,9.88
2022-10-25T11:27:33.010Z,12.90
2022-10-25T11:30:07.859Z,6.30
2022-10-25T11:32:48.897Z,10.38
2022-10-25T11:35:38.328Z,7.20
2022-10-25T11:38:43.836Z,13.93
2022-10-25T11:41:37.380Z,8.85
2022-10-25T11:44:47.656Z,7.75
2022-10-25T11:47:36.748Z,6.32
2022-10-25T11:50:23.446Z,8.25
2022-10-25T11:53:15.239Z,11.60
2022-10-25T11:56:05.693Z,7.65
2022-10-25T11:58:41.061Z,8.75
2022-10-25T12:01:26.411Z,10.77
2022-10-25T12:04:24.356Z,7.43
2022-10-25T12:07:12.919Z,9.90
2022-10-25T12:10:24.014Z,9.70
2022-10-25T12:12:55.553Z,6.50
2022-10-25T12:15:34.661Z,11.07
2022-10-25T12:18:02.362Z,9.13
2022-10-25T12:20:30.223Z,7.93
2022-10-25T12:23:02.815Z,9.20
2022-10-25T12:25:36.801Z,8.55
2022-10-25T12:28:14.454Z,9.60
2022-10-25T12:30:43.010Z,5.13
2022-10-25T12:33:45.293Z,10.73
2022-10-25T12:36:41.266Z,7.65
2022-10-25T12:39:18.846Z,12.00
2022-10-25T12:41:55.585Z,11.15
2022-10-25T12:44:58.923Z,12.57
2022-10-25T12:47:34.848Z,11.10
2022-10-25T12:50:44.822Z,10.30
2022-10-25T12:53:38.454Z,13.10
2022-10-25T12:56:38.703Z,8.77
2022-10-25T12:59:28.865Z,9.30
2022-10-25T13:02:16.668Z,10.13
2022-10-25T13:04:43.283Z,16.38
2022-10-25T13:07:12.434Z,12.52
2022-10-25T13:09:39.741Z,9.65
2022-10-25T13:12:18.273Z,7.70
2022-10-25T13:14:51.776Z,11.43
2022-10-25T13:17:18.387Z,10.73
2022-10-25T13:19:55.889Z,9.52
2022-10-25T13:22:37.378Z,11.63
2022-10-25T13:25:09.475Z,9.88
2022-10-25T13:27:37.057Z,8.77
2022-10-25T13:30:07.083Z,14.38
2022-10-25T13:32:35.776Z,9.85
2022-10-25T13:35:23.335Z,9.40
2022-10-25T13:37:54.183Z,12.95
2022-10-25T13:40:30.216Z,14.48
2022-10-25T13:43:01.757Z,14.55
2022-10-25T13:45:35.696Z,11.18
2022-10-25T13:48:10.472Z,11.95
2022-10-25T13:51:09.634Z,12.73
2022-10-25T13:53:49.117Z,11.15
2022-10-25T13:56:16.487Z,9.65
2022-10-25T13:58:50.708Z,11.27
2022-10-25T14:01:17.479Z,8.68
2022-10-25T14:03:50.806Z,11.63
2022-10-25T14:06:30.791Z,10.80
2022-10-25T14:09:11.599Z,12.55
2022-10-25T14:12:13.784Z,8.95
2022-10-25T14:14:51.846Z,9.60
2022-10-25T14:17:44.863Z,16.23
2022-10-25T14:20:31.132Z,10.20
2022-10-25T14:23:10.128Z,9.95
2022-10-25T14:25:42.341Z,11.50
2022-10-25T14:28:24.891Z,7.82
2022-10-25T14:30:58.606Z,11.52
2022-10-25T14:33:40.966Z,18.83
2022-10-25T14:36:17.768Z,11.15
2022-10-25T14:38:58.984Z,9.77
2022-10-25T14:41:30.562Z,14.93
2022-10-25T14:43:58.083Z,8.52
2022-10-25T14:46:30.159Z,9.43
2022-10-25T14:48:58.696Z,9.88
2022-10-25T14:51:32.439Z,9.45
2022-10-25T14:54:03.495Z,10.32
2022-10-25T14:56:55.651Z,11.05
2022-10-25T14:59:26.509Z,12.63
2022-10-25T15:02:28.414Z,9.65
2022-10-25T15:04:58.485Z,11.25
2022-10-25T15:07:28.379Z,10.23
2022-10-25T15:09:57.050Z,6.85
2022-10-25T15:12:26.216Z,11.70
2022-10-25T15:14:57.732Z,7.07
2022-10-25T15:17:30.602Z,10.90
2022-10-25T15:20:06.241Z,12.18
2022-10-25T15:22:44.808Z,8.07
2022-10-25T15:25:21.824Z,9.07
2022-10-25T15:27:50.312Z,10.45
2022-10-25T15:30:33.563Z,10.15
2022-10-25T15:33:00.284Z,10.65
2022-10-25T15:35:28.448Z,9.18
2022-10-25T15:37:56.299Z,10.40
2022-10-25T15:40:22.874Z,12.38
2022-10-25T15:42:49.739Z,7.45
2022-10-25T15:45:16.376Z,10.48
2022-10-25T15:47:47.376Z,11.30
2022-10-25T15:50:19.562Z,13.20
2022-10-25T15:52:47.258Z,4.82
2022-10-25T15:55:20.726Z,11.52
2022-10-25T15:57:47.960Z,6.40
2022-10-25T16:00:16.518Z,8.70
2022-10-25T16:02:44.866Z,11.65
2022-10-25T16:05:17.968Z,11.27
2022-10-25T16:07:44.672Z,10.63
2022-10-25T16:10:11.835Z,7.90
2022-10-25T16:12:47.920Z,9.52
2022-10-25T16:15:17.727Z,8.88
2022-10-25T16:17:50.169Z,6.75
2022-10-25T16:20:24.631Z,9.25
2022-10-25T16:22:52.007Z,10.60
2022-10-25T16:25:20.241Z,10.93
2022-10-25T16:27:47.479Z,8.55
2022-10-25T16:30:19.661Z,11.10
2022-10-25T16:32:47.678Z,13.73
2022-10-25T16:35:15.808Z,11.93
2022-10-25T16:37:43.075Z,11.60
2022-10-25T16:40:15.878Z,10.82
2022-10-25T16:42:42.837Z,11.88
2022-10-25T16:45:19.027Z,14.13
2022-10-25T16:47:46.892Z,9.88
2022-10-25T16:50:14.781Z,9.98
2022-10-25T16:52:42.031Z,9.68
2022-10-25T16:55:09.762Z,10.57
2022-10-25T16:57:36.416Z,15.75
2022-10-25T17:00:07.270Z,14.80
2022-10-25T17:02:38.314Z,8.70
2022-10-25T17:05:06.398Z,9.93
2022-10-25T17:07:32.989Z,10.35
2022-10-25T17:10:01.796Z,13.63
2022-10-25T17:12:28.429Z,12.52
2022-10-25T17:14:54.949Z,12.05
2022-10-25T17:19:47.984Z,9.95
2022-10-25T17:22:14.793Z,15.38
2022-10-25T17:24:41.363Z,11.25
2022-10-25T17:27:08.028Z,12.82
2022-10-25T17:29:34.595Z,14.63
2022-10-25T17:32:01.160Z,17.85
2022-10-25T17:34:27.879Z,23.75
2022-10-25T17:36:54.448Z,16.00
2022-10-25T17:39:21.023Z,20.13
2022-10-25T17:41:47.644Z,20.50
2022-10-25T17:44:14.251Z,29.10
2022-10-25T17:46:40.968Z,25.27
2022-10-25T17:49:07.609Z,21.98
2022-10-25T17:51:35.571Z,26.85
2022-10-25T17:54:03.047Z,33.35
2022-10-25T17:56:33.027Z,24.27
2022-10-25T17:59:07.914Z,29.40
2022-10-25T18:01:35.314Z,22.17
2022-10-25T18:04:02.027Z,23.17
2022-10-25T18:06:28.633Z,26.05
2022-10-25T18:08:58.868Z,29.17
2022-10-25T18:11:28.142Z,24.75
2022-10-25T18:13:57.053Z,28.48
2022-10-25T18:16:27.606Z,37.80
2022-10-25T18:18:56.201Z,33.95
2022-10-25T18:21:23.220Z,38.10
2022-10-25T18:23:54.381Z,38.22
2022-10-25T18:26:20.969Z,34.92
2022-10-25T18:28:47.705Z,37.80
2022-10-25T18:31:14.325Z,33.85
2022-10-25T18:33:43.303Z,37.97
2022-10-25T18:36:17.691Z,31.83
2022-10-25T18:38:45.509Z,32.95
2022-10-25T18:41:19.169Z,35.55
2022-10-25T18:43:49.269Z,35.42
2022-10-25T18:46:16.179Z,31.02
2022-10-25T18:48:45.067Z,40.50
2022-10-25T18:51:13.750Z,41.03
2022-10-25T18:53:40.448Z,38.80
2022-10-25T18:56:12.041Z,35.95
2022-10-25T18:58:39.526Z,35.22
2022-10-25T19:01:11.558Z,39.28
2022-10-25T19:03:38.822Z,38.08
2022-10-25T19:06:06.074Z,34.72
2022-10-25T19:08:34.125Z,32.72
2022-10-25T19:11:18.801Z,40.50
2022-10-25T19:13:48.910Z,35.25
2022-10-25T19:16:17.981Z,34.33
2022-10-25T19:18:44.679Z,33.90
2022-10-25T19:21:13.220Z,35.58
2022-10-25T19:23:42.593Z,47.05
2022-10-25T19:26:11.358Z,37.95
2022-10-25T19:28:38.211Z,34.60
2022-10-25T19:31:10.368Z,27.17
2022-10-25T19:33:36.912Z,34.17
2022-10-25T19:36:04.735Z,27.40
2022-10-25T19:38:31.352Z,23.10
2022-10-25T19:41:02.493Z,23.02
2022-10-25T19:43:29.444Z,24.58
2022-10-25T19:45:58.404Z,21.90
2022-10-25T19:48:25.505Z,23.77
2022-10-25T19:50:52.564Z,25.13
2022-10-25T19:53:19.268Z,22.75
2022-10-25T19:55:57.384Z,19.98
2022-10-25T19:58:24.657Z,20.10
2022-10-25T20:01:03.377Z,21.33
2022-10-25T20:03:30.535Z,21.67
2022-10-25T20:06:03.068Z,17.70
2022-10-25T20:08:33.477Z,19.52
2022-10-25T20:11:00.636Z,19.33
2022-10-25T20:13:27.308Z,19.08
2022-10-25T20:15:55.725Z,21.17
2022-10-25T20:18:24.985Z,26.75
2022-10-25T20:20:58.133Z,21.85
2022-10-25T20:23:24.696Z,18.75
2022-10-25T20:25:51.359Z,25.75
2022-10-25T20:28:18.138Z,26.30
2022-10-25T20:30:45.035Z,18.10
2022-10-25T20:33:11.678Z,23.30
2022-10-25T20:35:39.792Z,19.85
2022-10-25T20:38:07.638Z,21.00
2022-10-25T20:40:34.755Z,19.02
2022-10-25T20:43:01.460Z,20.67
2022-10-25T20:45:29.928Z,16.45
2022-10-25T20:47:58.033Z,25.15
2022-10-25T20:50:26.344Z,20.85
2022-10-25T20:53:11.053Z,22.55
2022-10-25T20:55:38.233Z,21.70
2022-10-25T20:58:05.297Z,23.38
2022-10-25T21:00:32.781Z,22.70
2022-10-25T21:02:59.815Z,22.02
2022-10-25T21:05:26.591Z,24.45
2022-10-25T21:07:53.315Z,21.73
2022-10-25T21:10:19.863Z,26.92
2022-10-25T21:12:46.478Z,21.15
2022-10-25T21:15:13.108Z,23.77
2022-10-25T21:17:39.639Z,26.45
2022-10-25T21:20:07.101Z,29.52
2022-10-25T21:22:33.753Z,22.95
2022-10-25T21:25:00.419Z,23.88
2022-10-25T21:27:27.010Z,24.92
2022-10-25T21:29:53.685Z,23.65
2022-10-25T21:32:20.694Z,19.42
2022-10-25T21:35:03.261Z,23.23
2022-10-25T21:37:49.096Z,23.50
2022-10-25T21:40:25.296Z,20.98
2022-10-25T21:43:03.314Z,19.73
2022-10-25T21:45:58.190Z,23.60
2022-10-25T21:48:48.861Z,20.08
2022-10-25T21:51:39.280Z,21.70
2022-10-25T21:54:15.134Z,18.23
2022-10-25T21:56:42.277Z,19.88
2022-10-25T21:59:08.887Z,21.20
2022-10-25T22:01:35.555Z,18.90
2022-10-25T22:04:02.388Z,18.92
2022-10-25T22:06:29.108Z,21.42
2022-10-25T22:08:56.448Z,20.48
2022-10-25T22:11:26.117Z,17.83
2022-10-25T22:16:27.361Z,15.50
2022-10-25T22:19:12.841Z,19.40
2022-10-25T22:21:39.956Z,20.00
2022-10-25T22:24:10.979Z,17.27
2022-10-25T22:26:39.381Z,19.10
2022-10-25T22:29:09.493Z,23.20
2022-10-25T22:31:36.352Z,17.15
2022-10-25T22:34:05.294Z,16.60
2022-10-25T22:36:34.897Z,13.18
2022-10-25T22:41:29.675Z,16.33
2022-10-25T22:43:57.116Z,18.33
2022-10-25T22:46:29.213Z,13.40
2022-10-25T22:48:58.082Z,15.35
2022-10-25T22:51:26.883Z,18.42
2022-10-25T22:53:53.645Z,15.23
2022-10-25T22:56:22.791Z,16.13
2022-10-25T22:58:54.982Z,20.55
2022-10-25T23:01:26.549Z,14.85
2022-10-25T23:03:55.032Z,15.93
2022-10-25T23:06:27.330Z,19.02
2022-10-25T23:08:56.432Z,18.73
2022-10-25T23:11:29.315Z,20.65
2022-10-25T23:14:00.340Z,20.10
2022-10-25T23:16:28.309Z,15.60
2022-10-25T23:18:55.016Z,17.05
2022-10-25T23:21:24.091Z,16.17
2022-10-25T23:23:52.754Z,18.42
2022-10-25T23:26:22.126Z,17.37
2022-10-25T23:28:49.007Z,13.30
2022-10-25T23:31:16.671Z,15.60
2022-10-25T23:33:43.877Z,21.42
2022-10-25T23:36:15.758Z,14.32
2022-10-25T23:38:43.744Z,21.33
2022-10-25T23:41:10.822Z,19.58
2022-10-25T23:43:37.451Z,15.85
2022-10-25T23:46:05.092Z,15.18
2022-10-25T23:48:32.079Z,14.38
2022-10-25T23:53:28.735Z,16.85
2022-10-25T23:55:55.684Z,11.98
2022-10-25T23:58:23.410Z,13.20
